Time;durP1;ratioP1;P1;durP2;ratioP2;P2;SDS_P1;SDS_P2;PMS_P1;PMS_P2;Temp;Humidity;BMP_temperature;BMP_pressure;BME280_temperature;BME280_humidity;BME280_pressure;Samples;Min_cycle;Max_cycle;Signal;HPM_P1;HPM_P2
2022/11/28 00:00:24;;;;;;;21.00;16.40;;;8.20;99.90;;;;;;5060554;28;20453;-79
2022/11/28 00:02:49;;;;;;;23.63;16.37;;;8.20;99.90;;;;;;5057359;28;20179;-78
2022/11/28 00:05:15;;;;;;;23.30;16.30;;;8.20;99.90;;;;;;5055233;28;20234;-78
2022/11/28 00:07:40;;;;;;;22.27;15.97;;;8.20;99.90;;;;;;5058064;28;20191;-78
2022/11/28 00:10:06;;;;;;;21.57;17.37;;;8.10;99.90;;;;;;5056576;28;20556;-77
2022/11/28 00:12:34;;;;;;;24.40;17.73;;;8.10;99.90;;;;;;5058856;28;20194;-78
2022/11/28 00:14:59;;;;;;;19.67;15.70;;;8.10;99.90;;;;;;5056576;28;20811;-77
2022/11/28 00:17:25;;;;;;;22.90;17.27;;;8.10;99.90;;;;;;5056869;28;20432;-77
2022/11/28 00:19:50;;;;;;;23.83;18.50;;;8.10;99.90;;;;;;5059956;28;20815;-79
2022/11/28 00:22:16;;;;;;;28.43;18.90;;;8.10;99.90;;;;;;5058704;28;20171;-79
2022/11/28 00:24:41;;;;;;;24.80;18.37;;;8.10;99.90;;;;;;5059060;28;20207;-78
2022/11/28 00:27:07;;;;;;;26.37;18.03;;;8.10;99.90;;;;;;5059824;28;20186;-78
2022/11/28 00:29:33;;;;;;;27.73;19.00;;;8.10;99.90;;;;;;5057695;28;20219;-79
2022/11/28 00:31:58;;;;;;;25.13;18.57;;;8.10;99.90;;;;;;5055921;28;20175;-78
2022/11/28 00:34:24;;;;;;;26.23;17.73;;;8.10;99.90;;;;;;5063274;28;20269;-79
2022/11/28 00:36:49;;;;;;;32.63;18.40;;;8.10;99.90;;;;;;5058778;28;20202;-78
2022/11/28 00:39:16;;;;;;;24.47;18.20;;;8.10;99.90;;;;;;5061507;28;20175;-77
2022/11/28 00:41:42;;;;;;;28.13;17.40;;;8.10;99.90;;;;;;5055867;28;20554;-78
2022/11/28 00:44:09;;;;;;;29.37;19.63;;;8.00;99.90;;;;;;5059768;28;20840;-76
2022/11/28 00:46:35;;;;;;;25.60;18.00;;;7.90;99.90;;;;;;5060169;28;20805;-80
2022/11/28 00:49:00;;;;;;;29.27;18.83;;;7.90;99.90;;;;;;5061776;28;20421;-80
2022/11/28 00:51:29;;;;;;;31.73;19.20;;;7.90;99.90;;;;;;5058639;28;20245;-78
2022/11/28 00:53:56;;;;;;;25.90;17.30;;;7.90;99.90;;;;;;5056010;28;20183;-79
2022/11/28 00:56:26;;;;;;;25.87;18.07;;;7.90;99.90;;;;;;5056370;28;20813;-79
2022/11/28 00:58:52;;;;;;;26.87;19.63;;;7.90;99.90;;;;;;5036780;28;21001;-80
2022/11/28 01:01:20;;;;;;;24.07;17.40;;;7.90;99.90;;;;;;5054842;28;20432;-81
2022/11/28 01:03:48;;;;;;;24.37;18.43;;;7.90;99.90;;;;;;5055893;28;20889;-79
2022/11/28 01:06:21;;;;;;;26.70;19.37;;;7.90;99.90;;;;;;5039369;28;20477;-79
2022/11/28 01:08:47;;;;;;;24.63;18.00;;;8.00;99.90;;;;;;5056108;28;20873;-79
2022/11/28 01:11:12;;;;;;;28.60;17.73;;;8.00;99.90;;;;;;5056435;28;20441;-80
2022/11/28 01:13:39;;;;;;;25.20;17.70;;;7.90;99.90;;;;;;5056997;28;20187;-81
2022/11/28 01:16:05;;;;;;;22.07;18.20;;;7.90;99.90;;;;;;5054309;28;20206;-80
2022/11/28 01:18:30;;;;;;;24.60;18.73;;;7.90;99.90;;;;;;5059461;28;20433;-80
2022/11/28 01:20:56;;;;;;;26.67;16.93;;;7.90;99.90;;;;;;5043624;28;20422;-78
2022/11/28 01:23:21;;;;;;;24.53;17.97;;;7.90;99.90;;;;;;5058467;28;20179;-78
2022/11/28 01:25:47;;;;;;;25.00;16.73;;;7.90;99.90;;;;;;5054848;28;20206;-79
2022/11/28 01:28:12;;;;;;;23.17;17.20;;;7.80;99.90;;;;;;5059735;28;20187;-78
2022/11/28 01:30:38;;;;;;;23.80;16.70;;;7.80;99.90;;;;;;5056717;28;20186;-78
2022/11/28 01:33:04;;;;;;;24.23;17.23;;;7.90;99.90;;;;;;5052187;28;20176;-78
2022/11/28 01:35:29;;;;;;;23.10;17.13;;;7.80;99.90;;;;;;5057919;28;20442;-82
2022/11/28 01:37:55;;;;;;;26.00;18.00;;;7.80;99.90;;;;;;5057754;28;20179;-80
2022/11/28 01:40:20;;;;;;;27.00;16.53;;;7.80;99.90;;;;;;5058690;28;20218;-79
2022/11/28 01:42:46;;;;;;;23.67;17.90;;;7.70;99.90;;;;;;5058499;28;20224;-81
2022/11/28 01:45:14;;;;;;;23.63;16.57;;;7.80;99.90;;;;;;5055529;28;20196;-79
2022/11/28 01:47:40;;;;;;;27.37;16.50;;;7.80;99.90;;;;;;5058588;28;20190;-81
2022/11/28 01:50:07;;;;;;;24.70;15.50;;;7.80;99.90;;;;;;5056626;28;20454;-79
2022/11/28 01:52:34;;;;;;;26.40;17.10;;;7.80;99.90;;;;;;5060482;28;20480;-79
2022/11/28 01:55:02;;;;;;;25.20;16.93;;;7.80;99.90;;;;;;5059597;28;20496;-80
2022/11/28 01:57:28;;;;;;;23.70;16.73;;;7.80;99.90;;;;;;5060691;28;20548;-79
2022/11/28 02:00:08;;;;;;;18.30;15.23;;;7.80;99.90;;;;;;5062131;28;20784;-79
2022/11/28 02:02:41;;;;;;;24.33;15.47;;;7.90;99.90;;;;;;5053353;28;20527;-78
2022/11/28 02:05:07;;;;;;;21.17;16.33;;;7.90;99.90;;;;;;5058644;28;20468;-79
2022/11/28 02:07:35;;;;;;;23.70;16.40;;;7.90;99.90;;;;;;5058670;28;20456;-79
2022/11/28 02:10:04;;;;;;;26.60;16.47;;;7.90;99.90;;;;;;5058237;28;20473;-79
2022/11/28 02:13:09;;;;;;;27.77;18.33;;;7.90;99.90;;;;;;5052427;28;21016;-80
2022/11/28 02:15:44;;;;;;;23.33;16.20;;;7.90;99.90;;;;;;5055233;28;20840;-80
2022/11/28 02:18:22;;;;;;;26.33;17.10;;;7.90;99.90;;;;;;5058825;28;20428;-78
2022/11/28 02:20:50;;;;;;;22.83;16.70;;;7.90;99.90;;;;;;5054237;28;20468;-79
2022/11/28 02:23:35;;;;;;;21.57;15.90;;;7.90;99.90;;;;;;5056313;28;20442;-77
2022/11/28 02:26:39;;;;;;;23.80;18.33;;;7.90;99.90;;;;;;5063591;28;20463;-78
2022/11/28 02:29:19;;;;;;;24.60;16.40;;;7.80;99.90;;;;;;5062073;28;20444;-79
2022/11/28 02:32:12;;;;;;;22.33;16.00;;;7.80;99.90;;;;;;5055223;28;20432;-79
2022/11/28 02:35:14;;;;;;;21.30;15.80;;;7.80;99.90;;;;;;5063229;28;20437;-79
2022/11/28 02:38:23;;;;;;;20.97;16.67;;;7.80;99.90;;;;;;5062649;28;20828;-78
2022/11/28 02:40:49;;;;;;;20.43;16.57;;;7.80;99.90;;;;;;5018704;28;20442;-79
2022/11/28 02:43:32;;;;;;;20.30;16.47;;;7.70;99.90;;;;;;5063290;28;20442;-78
2022/11/28 02:46:08;;;;;;;23.10;17.23;;;7.70;99.90;;;;;;5063461;28;20203;-80
2022/11/28 02:48:53;;;;;;;23.30;16.77;;;7.70;99.90;;;;;;5062744;28;20425;-78
2022/11/28 02:51:32;;;;;;;22.73;16.30;;;7.70;99.90;;;;;;5062898;28;20441;-78
2022/11/28 02:54:00;;;;;;;20.10;16.03;;;7.80;99.90;;;;;;5058694;28;20851;-77
2022/11/28 02:56:26;;;;;;;22.87;15.47;;;7.80;99.90;;;;;;5055673;28;20553;-79
2022/11/28 02:58:52;;;;;;;20.77;14.53;;;7.80;99.90;;;;;;5060862;28;20727;-81
2022/11/28 03:01:26;;;;;;;23.20;16.27;;;7.80;99.90;;;;;;5054309;28;20450;-79
2022/11/28 03:04:02;;;;;;;22.93;16.53;;;7.80;99.90;;;;;;5059195;28;20179;-79
2022/11/28 03:06:36;;;;;;;22.13;15.60;;;7.80;99.90;;;;;;5060708;28;20491;-79
2022/11/28 03:09:13;;;;;;;22.83;15.53;;;7.80;99.90;;;;;;5056585;28;20446;-79
2022/11/28 03:12:04;;;;;;;21.30;14.83;;;7.80;99.90;;;;;;5058798;28;20445;-80
2022/11/28 03:14:38;;;;;;;21.83;16.03;;;7.80;99.90;;;;;;5039909;28;20861;-80
2022/11/28 03:17:06;;;;;;;21.07;14.50;;;7.80;99.90;;;;;;5056854;28;20453;-80
2022/11/28 03:19:45;;;;;;;20.00;15.03;;;7.80;99.90;;;;;;5056957;28;20445;-78
2022/11/28 03:22:49;;;;;;;20.07;14.43;;;7.80;99.90;;;;;;5041735;28;20455;-78
2022/11/28 03:25:22;;;;;;;19.27;15.13;;;7.80;99.90;;;;;;5058462;28;20471;-78
2022/11/28 03:27:56;;;;;;;26.43;14.63;;;7.80;99.90;;;;;;5059234;28;20447;-78
2022/11/28 03:30:54;;;;;;;20.57;13.90;;;7.80;99.90;;;;;;5060257;28;20536;-79
2022/11/28 03:33:22;;;;;;;20.97;14.90;;;7.80;99.90;;;;;;5044132;28;20464;-80
2022/11/28 03:35:54;;;;;;;19.83;15.37;;;7.80;99.90;;;;;;5053837;28;21507;-77
2022/11/28 03:38:32;;;;;;;23.33;15.27;;;7.80;99.90;;;;;;5056847;28;22481;-79
2022/11/28 03:41:02;;;;;;;17.17;13.87;;;7.80;99.90;;;;;;5056467;28;20532;-79
2022/11/28 03:43:39;;;;;;;21.03;13.80;;;7.80;99.90;;;;;;5057326;28;20494;-79
2022/11/28 03:46:09;;;;;;;21.47;16.20;;;7.80;99.90;;;;;;5055705;28;20468;-79
2022/11/28 03:48:40;;;;;;;24.90;16.03;;;7.80;99.90;;;;;;5057293;28;20484;-76
2022/11/28 03:51:22;;;;;;;19.97;14.00;;;7.70;99.90;;;;;;5058597;28;20472;-77
2022/11/28 03:53:48;;;;;;;18.90;14.73;;;7.80;99.90;;;;;;5053248;28;20446;-78
2022/11/28 03:56:21;;;;;;;23.50;15.10;;;7.70;99.90;;;;;;5054415;28;20506;-79
2022/11/28 03:58:55;;;;;;;19.63;14.90;;;7.70;99.90;;;;;;5055807;28;20220;-79
2022/11/28 04:01:28;;;;;;;22.23;14.33;;;7.70;99.90;;;;;;5057422;28;20782;-79
2022/11/28 04:03:58;;;;;;;17.30;13.37;;;7.70;99.90;;;;;;5057447;28;20445;-81
2022/11/28 04:06:55;;;;;;;17.77;13.43;;;7.70;99.90;;;;;;5056675;28;20547;-79
2022/11/28 04:09:35;;;;;;;18.13;13.40;;;7.70;99.90;;;;;;5058618;28;20456;-82
2022/11/28 04:12:09;;;;;;;17.57;13.60;;;7.70;99.90;;;;;;5060273;28;20437;-80
2022/11/28 04:14:45;;;;;;;22.50;14.30;;;7.70;99.90;;;;;;5058557;28;20526;-79
2022/11/28 04:17:16;;;;;;;21.07;16.50;;;7.70;99.90;;;;;;5058297;28;20950;-80
2022/11/28 04:19:50;;;;;;;22.57;15.00;;;7.70;99.90;;;;;;5056679;28;20653;-80
2022/11/28 04:22:26;;;;;;;22.07;15.40;;;7.60;99.90;;;;;;5063165;28;21187;-81
2022/11/28 04:24:56;;;;;;;21.73;14.10;;;7.60;99.90;;;;;;5060281;28;20441;-79
2022/11/28 04:27:37;;;;;;;18.73;13.43;;;7.70;99.90;;;;;;5060900;28;20446;-79
2022/11/28 04:30:04;;;;;;;18.70;14.33;;;7.60;99.90;;;;;;5059068;28;20919;-79
2022/11/28 04:32:35;;;;;;;26.03;14.30;;;7.50;99.90;;;;;;5057362;28;20446;-80
2022/11/28 04:35:05;;;;;;;18.53;13.70;;;7.60;99.90;;;;;;5058182;28;20458;-80
2022/11/28 04:37:33;;;;;;;16.97;12.57;;;7.60;99.90;;;;;;5060019;28;20438;-81
2022/11/28 04:40:00;;;;;;;19.93;14.50;;;7.60;99.90;;;;;;5061151;28;20762;-81
2022/11/28 04:42:34;;;;;;;22.90;14.30;;;7.50;99.90;;;;;;5060877;28;20571;-81
2022/11/28 04:45:07;;;;;;;19.60;13.50;;;7.60;99.90;;;;;;5061931;28;20472;-77
2022/11/28 04:47:33;;;;;;;16.70;13.20;;;7.60;99.90;;;;;;5056651;28;20892;-78
2022/11/28 04:49:59;;;;;;;18.20;12.83;;;7.60;99.90;;;;;;5060339;28;20531;-78
2022/11/28 04:52:49;;;;;;;23.20;13.30;;;7.60;99.90;;;;;;5059614;28;20194;-79
2022/11/28 04:55:24;;;;;;;15.67;12.50;;;7.50;99.90;;;;;;5052602;28;20214;-79
2022/11/28 04:58:02;;;;;;;19.80;12.67;;;7.60;99.90;;;;;;5059149;28;20439;-81
2022/11/28 05:00:27;;;;;;;15.53;12.70;;;7.60;99.90;;;;;;5056886;28;20461;-80
2022/11/28 05:02:55;;;;;;;18.43;14.23;;;7.60;99.90;;;;;;5056976;28;20511;-79
2022/11/28 05:05:24;;;;;;;19.90;13.70;;;7.60;99.90;;;;;;5052090;28;21022;-79
2022/11/28 05:07:52;;;;;;;22.10;14.60;;;7.60;99.90;;;;;;5057637;28;20470;-77
2022/11/28 05:10:18;;;;;;;18.00;13.63;;;7.60;99.90;;;;;;5056213;28;20437;-77
2022/11/28 05:12:44;;;;;;;21.57;14.93;;;7.60;99.90;;;;;;5055594;28;20438;-82
2022/11/28 05:15:10;;;;;;;17.97;13.70;;;7.60;99.90;;;;;;5058479;28;20465;-79
2022/11/28 05:17:35;;;;;;;18.53;13.10;;;7.60;99.90;;;;;;5057616;28;20225;-81
2022/11/28 05:20:01;;;;;;;20.93;14.70;;;7.60;99.90;;;;;;5057726;28;21033;-79
2022/11/28 05:22:27;;;;;;;21.93;14.87;;;7.70;99.90;;;;;;5057474;28;20171;-78
2022/11/28 05:24:52;;;;;;;21.40;14.33;;;7.60;99.90;;;;;;5057694;28;20206;-78
2022/11/28 05:27:18;;;;;;;16.60;13.60;;;7.60;99.90;;;;;;5055405;28;20184;-79
2022/11/28 05:29:45;;;;;;;20.80;13.57;;;7.60;99.90;;;;;;5057695;28;20183;-79
2022/11/28 05:32:12;;;;;;;16.80;12.57;;;7.60;99.90;;;;;;5051619;28;20297;-79
2022/11/28 05:34:37;;;;;;;18.87;12.90;;;7.60;99.90;;;;;;5056623;28;21016;-79
2022/11/28 05:37:04;;;;;;;15.23;11.90;;;7.60;99.90;;;;;;5056152;28;20430;-79
2022/11/28 05:39:30;;;;;;;16.40;11.47;;;7.60;99.90;;;;;;5056245;28;20206;-79
2022/11/28 05:41:56;;;;;;;17.27;11.70;;;7.70;99.90;;;;;;5059306;28;20771;-80
2022/11/28 05:44:22;;;;;;;13.37;11.70;;;7.60;99.90;;;;;;5057863;28;20444;-81
2022/11/28 05:46:47;;;;;;;17.30;12.53;;;7.60;99.90;;;;;;5055380;28;20837;-82
2022/11/28 05:49:13;;;;;;;15.70;12.43;;;7.60;99.90;;;;;;5055124;28;20742;-80
2022/11/28 05:51:38;;;;;;;16.13;12.07;;;7.60;99.90;;;;;;5055781;28;20262;-79
2022/11/28 05:54:05;;;;;;;20.93;12.33;;;7.60;99.90;;;;;;5057485;28;20283;-80
2022/11/28 05:56:30;;;;;;;20.00;13.27;;;7.60;99.90;;;;;;5054900;28;20225;-80
2022/11/28 05:58:56;;;;;;;17.23;13.17;;;7.60;99.90;;;;;;5057607;28;20432;-79
2022/11/28 06:01:27;;;;;;;16.60;13.47;;;7.60;99.90;;;;;;5060801;28;20278;-81
2022/11/28 06:03:58;;;;;;;27.53;12.80;;;7.70;99.90;;;;;;5061655;28;20857;-80
2022/11/28 06:06:25;;;;;;;15.07;12.30;;;7.70;99.90;;;;;;5065661;28;20506;-80
2022/11/28 06:08:51;;;;;;;21.80;16.90;;;7.60;99.90;;;;;;5070435;28;20973;-81
2022/11/28 06:11:18;;;;;;;18.63;16.37;;;7.70;99.90;;;;;;5062841;28;20506;-78
2022/11/28 06:13:45;;;;;;;19.23;14.70;;;7.70;99.90;;;;;;5055071;28;20801;-78
2022/11/28 06:16:13;;;;;;;15.40;13.40;;;7.70;99.90;;;;;;5055178;28;20469;-80
2022/11/28 06:18:39;;;;;;;16.80;12.53;;;7.60;99.90;;;;;;5040568;28;21129;-80
2022/11/28 06:21:07;;;;;;;14.77;11.27;;;7.70;99.90;;;;;;5059273;28;20701;-79
2022/11/28 06:23:33;;;;;;;13.07;10.90;;;7.70;99.90;;;;;;5062879;28;20440;-80
2022/11/28 06:26:08;;;;;;;16.23;11.00;;;7.70;99.90;;;;;;5064798;28;20998;-80
2022/11/28 06:28:34;;;;;;;13.10;9.80;;;7.70;99.90;;;;;;5046787;28;20801;-81
2022/11/28 06:31:00;;;;;;;14.40;11.27;;;7.70;99.90;;;;;;5060661;28;20445;-81
2022/11/28 06:33:26;;;;;;;12.90;9.90;;;7.70;99.90;;;;;;5061741;28;20457;-69
2022/11/28 06:35:57;;;;;;;13.30;10.37;;;7.80;99.90;;;;;;5061134;28;20465;-78
2022/11/28 06:38:23;;;;;;;12.27;10.03;;;7.80;99.90;;;;;;5060792;28;20191;-79
2022/11/28 06:40:48;;;;;;;14.73;10.83;;;7.80;99.90;;;;;;5056966;28;20490;-80
2022/11/28 06:43:14;;;;;;;14.50;10.47;;;7.80;99.90;;;;;;5060314;28;20183;-79
2022/11/28 06:45:39;;;;;;;15.57;10.30;;;7.80;99.90;;;;;;5063311;28;20211;-79
2022/11/28 06:48:05;;;;;;;17.03;10.90;;;7.80;99.90;;;;;;5061363;28;20191;-79
2022/11/28 06:50:31;;;;;;;12.67;10.50;;;7.90;99.90;;;;;;5056233;28;20183;-79
2022/11/28 06:52:57;;;;;;;13.60;10.30;;;7.90;99.90;;;;;;5058408;28;20244;-74
2022/11/28 06:55:22;;;;;;;13.23;10.50;;;7.90;99.90;;;;;;5054016;28;20470;-80
2022/11/28 06:57:48;;;;;;;15.10;10.97;;;7.90;99.90;;;;;;5052417;28;20858;-76
2022/11/28 07:00:14;;;;;;;15.60;9.47;;;7.90;99.90;;;;;;5041372;28;20179;-75
2022/11/28 07:02:40;;;;;;;16.73;10.13;;;7.90;99.90;;;;;;5052990;28;21902;-74
2022/11/28 07:05:06;;;;;;;16.27;10.83;;;7.90;99.90;;;;;;5025982;28;20469;-72
2022/11/28 07:07:31;;;;;;;11.30;8.70;;;7.90;99.90;;;;;;5040730;28;20186;-72
2022/11/28 07:09:57;;;;;;;12.83;9.53;;;8.00;99.90;;;;;;5057122;28;20436;-73
2022/11/28 07:12:22;;;;;;;12.60;8.87;;;8.00;99.90;;;;;;5052343;28;20813;-72
2022/11/28 07:14:48;;;;;;;11.53;8.60;;;8.00;99.90;;;;;;5055426;28;20211;-74
2022/11/28 07:17:14;;;;;;;13.53;9.43;;;8.00;99.90;;;;;;5053266;28;20275;-74
2022/11/28 07:19:39;;;;;;;10.50;9.20;;;8.00;99.90;;;;;;5055722;28;20218;-74
2022/11/28 07:22:05;;;;;;;11.87;8.50;;;8.00;99.90;;;;;;5054335;28;20438;-74
2022/11/28 07:24:30;;;;;;;12.53;9.20;;;8.00;99.90;;;;;;5053912;28;20634;-74
2022/11/28 07:26:56;;;;;;;11.67;9.13;;;8.00;99.90;;;;;;5051198;28;21337;-73
2022/11/28 07:29:23;;;;;;;13.17;8.40;;;8.00;99.90;;;;;;5055458;28;20192;-73
2022/11/28 07:31:49;;;;;;;13.57;9.00;;;8.00;99.90;;;;;;5054180;28;20961;-76
2022/11/28 07:34:15;;;;;;;14.27;10.00;;;8.10;99.90;;;;;;5054419;28;20423;-79
2022/11/28 07:36:41;;;;;;;11.57;9.27;;;8.10;99.90;;;;;;5057639;28;20472;-77
2022/11/28 07:39:09;;;;;;;11.17;9.40;;;8.10;99.90;;;;;;5052589;28;20480;-79
2022/11/28 07:41:35;;;;;;;14.20;9.40;;;8.10;99.90;;;;;;5053538;28;20701;-79
2022/11/28 07:44:02;;;;;;;11.13;8.13;;;8.20;99.90;;;;;;5040443;28;20439;-80
2022/11/28 07:46:29;;;;;;;13.20;10.00;;;8.10;99.90;;;;;;5059093;28;20218;-80
2022/11/28 07:48:55;;;;;;;12.60;9.00;;;8.20;99.90;;;;;;5058706;28;20417;-76
2022/11/28 07:51:27;;;;;;;14.13;9.40;;;8.20;99.90;;;;;;5058729;28;20444;-86
2022/11/28 07:53:54;;;;;;;16.67;10.10;;;8.20;99.90;;;;;;5060045;28;20179;-83
2022/11/28 07:56:22;;;;;;;13.50;9.83;;;8.20;99.90;;;;;;5061710;28;20469;-81
2022/11/28 07:58:48;;;;;;;17.03;10.20;;;8.20;99.90;;;;;;5040613;28;20483;-81
2022/11/28 08:01:15;;;;;;;14.60;9.40;;;8.20;99.90;;;;;;5053782;28;20454;-82
2022/11/28 08:03:41;;;;;;;13.17;9.47;;;8.30;99.90;;;;;;5058641;28;20440;-80
2022/11/28 08:06:07;;;;;;;20.33;10.97;;;8.30;99.90;;;;;;5059898;28;20468;-81
2022/11/28 08:08:33;;;;;;;15.40;10.60;;;8.30;99.90;;;;;;5060260;28;20722;-79
2022/11/28 08:11:02;;;;;;;16.80;10.97;;;8.30;99.90;;;;;;5060410;28;20441;-79
2022/11/28 08:13:27;;;;;;;17.03;11.53;;;8.30;99.90;;;;;;5061892;28;20443;-79
2022/11/28 08:15:54;;;;;;;18.67;11.10;;;8.30;99.90;;;;;;5060323;28;20465;-77
2022/11/28 08:18:23;;;;;;;12.77;9.50;;;8.30;99.90;;;;;;5061952;28;21175;-78
2022/11/28 08:20:49;;;;;;;11.17;9.53;;;8.40;99.90;;;;;;5049191;28;22004;-74
2022/11/28 08:23:14;;;;;;;10.97;9.77;;;8.30;99.90;;;;;;5054012;28;20491;-77
2022/11/28 08:25:40;;;;;;;13.57;9.17;;;8.20;99.90;;;;;;5036528;28;20206;-75
2022/11/28 08:28:06;;;;;;;13.93;11.03;;;8.20;99.90;;;;;;5052489;28;20186;-77
2022/11/28 08:30:31;;;;;;;11.90;9.60;;;8.30;99.90;;;;;;5053299;28;20184;-76
2022/11/28 08:32:57;;;;;;;13.53;10.37;;;8.30;99.90;;;;;;5053207;28;20183;-77
2022/11/28 08:35:22;;;;;;;15.40;11.17;;;8.30;99.90;;;;;;5053423;28;20218;-80
2022/11/28 08:37:48;;;;;;;18.00;11.40;;;8.40;99.90;;;;;;5054578;28;20251;-72
2022/11/28 08:40:14;;;;;;;22.00;11.03;;;8.40;99.90;;;;;;5049138;28;20184;-75
2022/11/28 08:42:39;;;;;;;14.97;10.23;;;8.40;99.90;;;;;;5044956;28;20893;-71
2022/11/28 08:45:06;;;;;;;12.83;9.93;;;8.50;99.90;;;;;;5048182;28;20465;-75
2022/11/28 08:47:32;;;;;;;13.80;9.80;;;8.50;99.90;;;;;;5047315;28;20180;-73
2022/11/28 08:49:57;;;;;;;17.37;9.93;;;8.50;99.90;;;;;;5045519;28;20433;-72
2022/11/28 08:52:24;;;;;;;12.30;8.60;;;8.50;99.90;;;;;;5053109;28;20441;-72
2022/11/28 08:54:50;;;;;;;15.90;10.27;;;8.50;99.90;;;;;;5051380;28;20207;-72
2022/11/28 08:57:15;;;;;;;13.60;8.90;;;8.60;99.90;;;;;;5048878;28;20947;-72
2022/11/28 08:59:41;;;;;;;12.90;10.40;;;8.70;99.90;;;;;;5033680;28;20601;-73
2022/11/28 09:02:09;;;;;;;24.63;12.20;;;8.80;99.90;;;;;;5057845;28;20187;-73
2022/11/28 09:04:35;;;;;;;17.60;13.23;;;8.90;99.90;;;;;;5059722;28;20215;-70
2022/11/28 09:07:01;;;;;;;18.57;12.13;;;8.90;99.90;;;;;;5060839;28;20972;-71
2022/11/28 09:09:27;;;;;;;17.10;10.93;;;9.00;99.90;;;;;;5055542;28;20645;-75
2022/11/28 09:11:53;;;;;;;15.53;11.30;;;9.00;99.90;;;;;;5054501;28;20595;-73
2022/11/28 09:14:19;;;;;;;15.40;10.37;;;9.00;99.90;;;;;;5058825;28;20441;-74
2022/11/28 09:16:44;;;;;;;20.57;11.23;;;9.10;99.90;;;;;;5056138;28;20214;-73
2022/11/28 09:19:10;;;;;;;18.53;11.67;;;9.10;99.90;;;;;;5053777;28;20236;-73
2022/11/28 09:21:36;;;;;;;15.73;10.80;;;9.10;99.90;;;;;;5056243;28;20179;-73
2022/11/28 09:24:01;;;;;;;19.60;12.70;;;9.00;99.90;;;;;;5054591;28;20183;-72
2022/11/28 09:26:28;;;;;;;15.20;11.20;;;9.00;99.90;;;;;;5058881;28;20573;-72
2022/11/28 09:28:54;;;;;;;14.33;9.93;;;9.10;99.90;;;;;;5056252;28;20260;-73
2022/11/28 09:31:20;;;;;;;12.30;9.80;;;9.20;99.90;;;;;;5056602;28;20921;-73
2022/11/28 09:33:47;;;;;;;13.40;9.30;;;9.30;99.90;;;;;;5055028;28;20217;-72
2022/11/28 09:36:19;;;;;;;11.00;8.90;;;9.20;99.90;;;;;;5062896;28;20457;-78
2022/11/28 09:38:45;;;;;;;14.10;9.70;;;9.30;99.90;;;;;;5061136;28;20421;-77
2022/11/28 09:41:22;;;;;;;15.37;9.53;;;9.30;99.90;;;;;;5061049;28;20807;-76
2022/11/28 09:43:49;;;;;;;12.83;8.80;;;9.40;99.90;;;;;;5062051;28;20453;-76
2022/11/28 09:46:24;;;;;;;12.43;8.63;;;9.40;99.90;;;;;;5063339;28;20841;-73
2022/11/28 09:48:54;;;;;;;14.90;10.00;;;9.40;99.90;;;;;;5061267;28;20447;-75
2022/11/28 09:51:35;;;;;;;15.50;9.60;;;9.40;99.90;;;;;;5060080;28;20437;-78
2022/11/28 09:54:08;;;;;;;12.37;8.40;;;9.20;99.90;;;;;;5061744;28;21091;-77
2022/11/28 09:56:34;;;;;;;14.10;8.80;;;9.10;99.90;;;;;;5063942;28;20503;-81
2022/11/28 09:59:03;;;;;;;16.20;8.47;;;9.20;99.90;;;;;;5061162;28;20433;-85
2022/11/28 10:01:47;;;;;;;13.57;9.17;;;9.20;99.90;;;;;;5056907;28;20886;-83
2022/11/28 10:04:21;;;;;;;10.80;8.40;;;9.30;99.90;;;;;;5051979;28;20476;-83
2022/11/28 10:06:49;;;;;;;13.40;9.00;;;9.30;99.90;;;;;;5059990;28;21067;-83
2022/11/28 10:09:36;;;;;;;15.13;10.00;;;9.40;99.90;;;;;;5061670;28;20945;-83
2022/11/28 10:12:12;;;;;;;14.80;9.87;;;9.40;99.90;;;;;;5064001;28;21406;-81
2022/11/28 10:14:57;;;;;;;13.20;8.80;;;9.50;99.90;;;;;;5058346;28;20509;-73
2022/11/28 10:17:36;;;;;;;12.03;9.13;;;9.40;99.90;;;;;;5054589;28;20442;-72
2022/11/28 10:20:21;;;;;;;12.17;8.70;;;9.50;99.90;;;;;;5057693;28;20463;-72
2022/11/28 10:22:55;;;;;;;17.40;10.30;;;9.50;99.90;;;;;;5053059;28;20941;-72
2022/11/28 10:25:38;;;;;;;14.40;10.53;;;9.50;99.90;;;;;;5053428;28;20502;-71
2022/11/28 10:28:20;;;;;;;14.30;10.43;;;9.60;99.90;;;;;;5053621;28;20433;-72
2022/11/28 10:30:52;;;;;;;11.93;9.10;;;9.70;99.90;;;;;;5060388;28;20516;-71
2022/11/28 10:33:25;;;;;;;13.00;9.10;;;9.70;99.90;;;;;;5046873;28;20818;-77
2022/11/28 10:35:56;;;;;;;13.10;9.07;;;9.70;99.90;;;;;;5039645;28;20457;-73
2022/11/28 10:38:27;;;;;;;12.20;9.63;;;9.80;99.90;;;;;;5058755;28;20842;-72
2022/11/28 10:41:15;;;;;;;19.83;9.33;;;9.80;99.90;;;;;;5058466;28;20441;-77
2022/11/28 10:43:59;;;;;;;12.40;9.70;;;9.70;99.90;;;;;;5057731;28;20445;-76
2022/11/28 10:46:33;;;;;;;11.40;9.00;;;9.80;99.90;;;;;;5055561;28;20970;-75
2022/11/28 10:48:59;;;;;;;10.73;8.50;;;9.90;99.90;;;;;;5049751;28;20803;-74
2022/11/28 10:51:48;;;;;;;10.10;8.00;;;9.90;99.90;;;;;;5053028;28;20569;-73
2022/11/28 10:54:23;;;;;;;13.60;8.93;;;9.90;99.90;;;;;;5060315;28;20183;-72
2022/11/28 10:57:25;;;;;;;14.93;9.60;;;10.00;99.90;;;;;;5062233;28;20470;-72
2022/11/28 11:00:12;;;;;;;16.00;9.63;;;10.00;99.90;;;;;;5060331;28;20448;-74
2022/11/28 11:02:53;;;;;;;11.90;8.77;;;10.10;99.90;;;;;;5061342;28;20436;-73
2022/11/28 11:05:26;;;;;;;16.40;9.40;;;10.10;99.90;;;;;;5058730;28;20473;-72
2022/11/28 11:07:54;;;;;;;13.33;9.60;;;10.20;99.90;;;;;;5056131;28;20457;-72
2022/11/28 11:10:50;;;;;;;11.77;8.40;;;10.20;99.90;;;;;;5039369;28;20481;-76
2022/11/28 11:13:22;;;;;;;12.03;8.90;;;10.20;99.90;;;;;;5056056;28;20491;-78
2022/11/28 11:16:18;;;;;;;12.43;8.63;;;10.30;99.90;;;;;;5063091;28;20548;-76
2022/11/28 11:18:45;;;;;;;16.27;8.73;;;10.30;99.90;;;;;;5047756;28;20453;-75
2022/11/28 11:21:15;;;;;;;11.13;9.03;;;10.40;99.90;;;;;;5062004;28;20430;-76
2022/11/28 11:23:42;;;;;;;10.83;8.50;;;10.40;99.90;;;;;;5060524;28;20437;-77
2022/11/28 11:26:39;;;;;;;15.47;9.23;;;10.40;99.90;;;;;;5063896;28;20441;-77
2022/11/28 11:29:05;;;;;;;13.63;9.07;;;10.40;99.90;;;;;;5059485;28;20448;-76
2022/11/28 11:31:37;;;;;;;12.70;8.80;;;10.40;99.90;;;;;;5060130;28;20461;-77
2022/11/28 11:34:06;;;;;;;12.90;9.83;;;10.50;99.90;;;;;;5060000;28;20451;-80
2022/11/28 11:36:34;;;;;;;16.73;9.50;;;10.50;99.90;;;;;;5060319;28;20526;-77
2022/11/28 11:39:09;;;;;;;13.67;9.93;;;10.50;99.90;;;;;;5061010;28;20436;-77
2022/11/28 11:41:37;;;;;;;11.80;9.57;;;10.40;99.90;;;;;;5061498;28;20523;-77
2022/11/28 11:44:14;;;;;;;11.77;8.50;;;10.50;99.90;;;;;;5058099;28;21252;-77
2022/11/28 11:46:53;;;;;;;12.10;9.37;;;10.50;99.90;;;;;;5060762;28;21158;-79
2022/11/28 11:49:29;;;;;;;13.47;9.40;;;10.40;99.90;;;;;;5058105;28;20432;-76
2022/11/28 11:51:56;;;;;;;12.60;9.50;;;10.60;99.90;;;;;;5060635;28;20800;-72
2022/11/28 11:54:22;;;;;;;16.50;10.70;;;10.60;99.90;;;;;;5057843;28;20446;-72
2022/11/28 11:56:49;;;;;;;14.43;10.07;;;10.70;99.90;;;;;;5058579;28;21079;-75
2022/11/28 11:59:23;;;;;;;12.83;10.53;;;10.80;99.90;;;;;;5057395;28;20186;-71
2022/11/28 12:01:54;;;;;;;13.80;10.60;;;10.80;99.90;;;;;;5043488;28;20426;-71
2022/11/28 12:04:28;;;;;;;14.70;9.10;;;11.00;99.90;;;;;;5058202;28;20677;-78
2022/11/28 12:06:57;;;;;;;12.13;8.07;;;11.00;99.90;;;;;;5060736;28;20425;-74
2022/11/28 12:09:32;;;;;;;13.20;9.70;;;11.10;99.90;;;;;;5058760;28;20976;-78
2022/11/28 12:12:05;;;;;;;12.00;9.40;;;11.00;99.90;;;;;;5062932;28;20470;-72
2022/11/28 12:14:34;;;;;;;11.47;8.80;;;11.10;99.90;;;;;;5056536;28;20465;-72
2022/11/28 12:17:33;;;;;;;13.03;9.73;;;11.10;99.90;;;;;;5059990;28;20469;-72
2022/11/28 12:20:30;;;;;;;12.30;9.00;;;11.00;99.90;;;;;;5060868;28;20421;-73
2022/11/28 12:23:29;;;;;;;12.93;9.43;;;11.00;99.90;;;;;;5056521;28;20440;-73
2022/11/28 12:26:11;;;;;;;10.23;8.63;;;11.00;99.90;;;;;;5056136;28;20574;-70
2022/11/28 12:28:42;;;;;;;10.13;8.23;;;11.10;99.90;;;;;;5061579;28;20944;-71
2022/11/28 12:31:17;;;;;;;10.47;9.00;;;11.20;99.90;;;;;;5054192;28;20445;-75
2022/11/28 12:34:12;;;;;;;11.60;9.30;;;11.20;99.90;;;;;;5056445;28;20440;-75
2022/11/28 12:36:59;;;;;;;10.93;9.00;;;11.20;99.90;;;;;;5059945;28;20594;-76
2022/11/28 12:39:38;;;;;;;12.67;9.20;;;11.20;99.90;;;;;;5043044;28;21035;-73
2022/11/28 12:42:21;;;;;;;10.10;7.87;;;11.20;99.90;;;;;;5058548;28;20450;-76
2022/11/28 12:45:04;;;;;;;12.37;8.93;;;11.20;99.90;;;;;;5061462;28;20464;-72
2022/11/28 12:47:54;;;;;;;12.87;8.50;;;11.20;99.90;;;;;;5058376;28;20536;-76
2022/11/28 12:50:52;;;;;;;9.97;8.97;;;11.40;99.90;;;;;;5052419;28;20442;-73
2022/11/28 12:53:42;;;;;;;10.47;8.33;;;11.50;99.90;;;;;;5043742;28;20438;-77
2022/11/28 12:56:35;;;;;;;12.63;9.23;;;11.60;99.90;;;;;;5053426;28;20580;-75
2022/11/28 12:59:13;;;;;;;9.53;8.23;;;11.60;99.90;;;;;;5052330;28;20441;-74